sensor_id;sensor_type;location;lat;lon;timestamp;P1;durP1;ratioP1;P2;durP2;ratioP2
44730;SDS011;30458;47.448;19.032;2022-09-03T00:00:34;768.28;;;709.28;;
44730;SDS011;30458;47.448;19.032;2022-09-03T00:10:50;725.83;;;673.78;;
44730;SDS011;30458;47.448;19.032;2022-09-03T00:21:08;734.67;;;680.67;;
44730;SDS011;30458;47.448;19.032;2022-09-03T00:31:24;788.17;;;731.38;;
44730;SDS011;30458;47.448;19.032;2022-09-03T00:41:42;740.08;;;686.92;;
44730;SDS011;30458;47.448;19.032;2022-09-03T01:12:54;799.97;;;742.25;;
44730;SDS011;30458;47.448;19.032;2022-09-03T01:44:28;634.05;;;587.08;;
44730;SDS011;30458;47.448;19.032;2022-09-03T01:54:58;819.90;;;755.53;;
44730;SDS011;30458;47.448;19.032;2022-09-03T02:05:10;657.33;;;617.60;;
44730;SDS011;30458;47.448;19.032;2022-09-03T02:15:22;790.92;;;738.47;;
44730;SDS011;30458;47.448;19.032;2022-09-03T02:25:28;588.38;;;555.45;;
44730;SDS011;30458;47.448;19.032;2022-09-03T02:35:34;598.40;;;558.20;;
44730;SDS011;30458;47.448;19.032;2022-09-03T02:45:35;619.20;;;575.58;;
44730;SDS011;30458;47.448;19.032;2022-09-03T02:55:43;702.70;;;650.22;;
44730;SDS011;30458;47.448;19.032;2022-09-03T03:05:48;788.78;;;734.70;;
44730;SDS011;30458;47.448;19.032;2022-09-03T03:15:58;759.08;;;710.25;;
44730;SDS011;30458;47.448;19.032;2022-09-03T03:26:01;698.78;;;658.55;;
44730;SDS011;30458;47.448;19.032;2022-09-03T03:36:07;701.17;;;659.42;;
44730;SDS011;30458;47.448;19.032;2022-09-03T03:46:10;757.92;;;706.65;;
44730;SDS011;30458;47.448;19.032;2022-09-03T03:56:12;784.05;;;730.75;;
44730;SDS011;30458;47.448;19.032;2022-09-03T04:06:17;653.30;;;611.00;;
44730;SDS011;30458;47.448;19.032;2022-09-03T04:16:19;704.45;;;660.45;;
44730;SDS011;30458;47.448;19.032;2022-09-03T04:26:28;682.03;;;640.58;;
44730;SDS011;30458;47.448;19.032;2022-09-03T04:36:30;572.72;;;535.72;;
44730;SDS011;30458;47.448;19.032;2022-09-03T04:46:35;706.90;;;661.67;;
44730;SDS011;30458;47.448;19.032;2022-09-03T04:56:39;778.75;;;719.83;;
44730;SDS011;30458;47.448;19.032;2022-09-03T05:06:42;949.40;;;859.70;;
44730;SDS011;30458;47.448;19.032;2022-09-03T05:16:44;726.70;;;654.25;;
44730;SDS011;30458;47.448;19.032;2022-09-03T05:26:47;1155.63;;;952.83;;
44730;SDS011;30458;47.448;19.032;2022-09-03T05:36:48;1876.65;;;999.90;;
44730;SDS011;30458;47.448;19.032;2022-09-03T05:46:49;1678.20;;;998.17;;
44730;SDS011;30458;47.448;19.032;2022-09-03T05:56:50;1640.88;;;995.08;;
44730;SDS011;30458;47.448;19.032;2022-09-03T06:06:56;1942.30;;;999.90;;
44730;SDS011;30458;47.448;19.032;2022-09-03T06:16:57;1833.03;;;997.90;;
44730;SDS011;30458;47.448;19.032;2022-09-03T06:26:58;1348.90;;;890.65;;
44730;SDS011;30458;47.448;19.032;2022-09-03T06:36:58;818.70;;;703.87;;
44730;SDS011;30458;47.448;19.032;2022-09-03T06:46:59;776.80;;;683.15;;
44730;SDS011;30458;47.448;19.032;2022-09-03T06:57:03;422.17;;;388.77;;
44730;SDS011;30458;47.448;19.032;2022-09-03T07:07:04;427.50;;;391.67;;
44730;SDS011;30458;47.448;19.032;2022-09-03T07:17:05;424.97;;;388.93;;
44730;SDS011;30458;47.448;19.032;2022-09-03T07:27:06;615.60;;;569.37;;
44730;SDS011;30458;47.448;19.032;2022-09-03T07:37:07;568.53;;;526.20;;
44730;SDS011;30458;47.448;19.032;2022-09-03T07:47:08;403.73;;;371.75;;
44730;SDS011;30458;47.448;19.032;2022-09-03T07:57:09;413.43;;;383.57;;
44730;SDS011;30458;47.448;19.032;2022-09-03T08:07:09;587.27;;;538.20;;
44730;SDS011;30458;47.448;19.032;2022-09-03T08:17:10;685.77;;;613.20;;
44730;SDS011;30458;47.448;19.032;2022-09-03T08:27:15;501.70;;;467.10;;
44730;SDS011;30458;47.448;19.032;2022-09-03T08:37:25;726.25;;;655.50;;
44730;SDS011;30458;47.448;19.032;2022-09-03T08:57:43;924.55;;;772.95;;
44730;SDS011;30458;47.448;19.032;2022-09-03T09:29:04;1484.97;;;910.93;;
44730;SDS011;30458;47.448;19.032;2022-09-03T09:39:10;1739.53;;;992.20;;
44730;SDS011;30458;47.448;19.032;2022-09-03T09:59:31;1197.25;;;813.97;;
44730;SDS011;30458;47.448;19.032;2022-09-03T10:09:33;1368.53;;;885.67;;
44730;SDS011;30458;47.448;19.032;2022-09-03T10:19:45;1814.93;;;999.90;;
44730;SDS011;30458;47.448;19.032;2022-09-03T10:30:26;1844.93;;;998.78;;
44730;SDS011;30458;47.448;19.032;2022-09-03T11:01:09;834.95;;;719.10;;
44730;SDS011;30458;47.448;19.032;2022-09-03T11:11:23;1043.15;;;853.55;;
44730;SDS011;30458;47.448;19.032;2022-09-03T11:21:32;712.58;;;647.83;;
44730;SDS011;30458;47.448;19.032;2022-09-03T11:41:59;735.28;;;669.75;;
44730;SDS011;30458;47.448;19.032;2022-09-03T11:52:06;583.53;;;543.47;;
44730;SDS011;30458;47.448;19.032;2022-09-03T12:02:24;621.15;;;578.05;;
44730;SDS011;30458;47.448;19.032;2022-09-03T12:22:41;629.75;;;585.17;;
44730;SDS011;30458;47.448;19.032;2022-09-03T12:32:42;570.53;;;533.47;;
44730;SDS011;30458;47.448;19.032;2022-09-03T12:42:44;724.75;;;660.50;;
44730;SDS011;30458;47.448;19.032;2022-09-03T12:52:49;716.40;;;653.80;;
44730;SDS011;30458;47.448;19.032;2022-09-03T13:13:20;649.95;;;597.95;;
44730;SDS011;30458;47.448;19.032;2022-09-03T13:33:31;629.85;;;588.22;;
44730;SDS011;30458;47.448;19.032;2022-09-03T14:04:28;609.78;;;568.28;;
44730;SDS011;30458;47.448;19.032;2022-09-03T14:24:58;622.28;;;576.75;;
44730;SDS011;30458;47.448;19.032;2022-09-03T15:36:45;642.20;;;591.92;;
44730;SDS011;30458;47.448;19.032;2022-09-03T15:46:58;702.72;;;644.42;;
44730;SDS011;30458;47.448;19.032;2022-09-03T15:57:09;567.95;;;529.15;;
44730;SDS011;30458;47.448;19.032;2022-09-03T17:39:55;822.83;;;741.35;;
44730;SDS011;30458;47.448;19.032;2022-09-03T18:00:11;1366.53;;;891.13;;
44730;SDS011;30458;47.448;19.032;2022-09-03T18:20:50;1384.72;;;937.35;;
44730;SDS011;30458;47.448;19.032;2022-09-03T18:31:14;1517.60;;;967.20;;
44730;SDS011;30458;47.448;19.032;2022-09-03T18:52:34;1096.00;;;864.40;;
44730;SDS011;30458;47.448;19.032;2022-09-03T19:03:22;844.25;;;742.85;;
44730;SDS011;30458;47.448;19.032;2022-09-03T19:13:49;796.80;;;693.75;;
44730;SDS011;30458;47.448;19.032;2022-09-03T19:24:09;884.90;;;757.08;;
44730;SDS011;30458;47.448;19.032;2022-09-03T19:45:11;560.03;;;502.15;;
44730;SDS011;30458;47.448;19.032;2022-09-03T19:55:33;485.63;;;440.90;;
44730;SDS011;30458;47.448;19.032;2022-09-03T20:06:02;723.25;;;655.92;;
44730;SDS011;30458;47.448;19.032;2022-09-03T20:26:54;475.70;;;440.02;;
44730;SDS011;30458;47.448;19.032;2022-09-03T20:37:37;564.85;;;525.33;;
44730;SDS011;30458;47.448;19.032;2022-09-03T20:58:14;651.42;;;606.22;;
44730;SDS011;30458;47.448;19.032;2022-09-03T21:08:39;617.60;;;573.95;;
44730;SDS011;30458;47.448;19.032;2022-09-03T21:19:00;706.88;;;655.42;;
44730;SDS011;30458;47.448;19.032;2022-09-03T21:39:25;797.67;;;734.08;;
44730;SDS011;30458;47.448;19.032;2022-09-03T21:49:31;875.78;;;803.05;;
44730;SDS011;30458;47.448;19.032;2022-09-03T22:20:20;951.35;;;861.95;;
44730;SDS011;30458;47.448;19.032;2022-09-03T22:30:26;948.17;;;859.10;;
44730;SDS011;30458;47.448;19.032;2022-09-03T22:50:58;949.43;;;861.83;;
44730;SDS011;30458;47.448;19.032;2022-09-03T23:01:04;905.28;;;821.45;;
44730;SDS011;30458;47.448;19.032;2022-09-03T23:21:35;883.17;;;803.78;;
44730;SDS011;30458;47.448;19.032;2022-09-03T23:31:42;903.90;;;821.13;;
